createdAt,value
2024-02-29T00:02:24.638Z,101165.72
2024-02-29T00:04:51.152Z,101169.19
2024-02-29T00:07:17.919Z,101173.66
2024-02-29T00:09:44.809Z,101173.44
2024-02-29T00:12:11.634Z,101170.16
2024-02-29T00:14:39.245Z,101155.25
2024-02-29T00:17:07.311Z,101147.88
2024-02-29T00:19:34.091Z,101155.94
2024-02-29T00:22:00.965Z,101160.50
2024-02-29T00:24:27.851Z,101154.19
2024-02-29T00:26:54.526Z,101154.75
2024-02-29T00:29:22.975Z,101162.59
2024-02-29T00:31:49.951Z,101152.00
2024-02-29T00:34:16.753Z,101149.94
2024-02-29T00:36:43.748Z,101154.72
2024-02-29T00:39:14.882Z,101145.97
2024-02-29T00:41:42.818Z,101144.44
2024-02-29T00:44:10.574Z,101145.28
2024-02-29T00:46:41.410Z,101141.25
2024-02-29T00:49:08.417Z,101136.06
2024-02-29T00:51:35.509Z,101132.28
2024-02-29T00:54:02.343Z,101136.09
2024-02-29T00:56:29.095Z,101132.94
2024-02-29T00:58:55.649Z,101124.34
2024-02-29T01:01:22.276Z,101120.91
2024-02-29T01:03:49.350Z,101112.72
2024-02-29T01:06:17.147Z,101116.41
2024-02-29T01:08:43.981Z,101119.34
2024-02-29T01:11:10.641Z,101120.19
2024-02-29T01:13:37.530Z,101107.50
2024-02-29T01:16:04.382Z,101111.31
2024-02-29T01:18:30.949Z,101108.44
2024-02-29T01:20:57.766Z,101102.28
2024-02-29T01:23:24.321Z,101105.00
2024-02-29T01:25:51.061Z,101103.41
2024-02-29T01:28:17.617Z,101103.19
2024-02-29T01:30:44.687Z,101096.22
2024-02-29T01:33:11.330Z,101100.78
2024-02-29T01:35:39.260Z,101093.53
2024-02-29T01:38:06.148Z,101090.09
2024-02-29T01:40:33.161Z,101092.66
2024-02-29T01:42:59.742Z,101090.03
2024-02-29T01:45:26.539Z,101085.84
2024-02-29T01:47:53.406Z,101078.81
2024-02-29T01:50:20.657Z,101077.94
2024-02-29T01:52:47.266Z,101070.72
2024-02-29T01:55:14.179Z,101068.91
2024-02-29T01:57:41.095Z,101067.13
2024-02-29T02:00:10.191Z,101067.31
2024-02-29T02:02:39.225Z,101063.53
2024-02-29T02:05:09.569Z,101056.50
2024-02-29T02:07:37.000Z,101057.31
2024-02-29T02:10:04.697Z,101059.09
2024-02-29T02:12:31.512Z,101047.59
2024-02-29T02:14:58.524Z,101049.38
2024-02-29T02:17:25.402Z,101045.34
2024-02-29T02:19:53.620Z,101043.03
2024-02-29T02:22:20.382Z,101043.13
2024-02-29T02:24:47.133Z,101038.13
2024-02-29T02:27:13.926Z,101041.66
2024-02-29T02:29:40.761Z,101043.03
2024-02-29T02:32:08.065Z,101035.69
2024-02-29T02:34:34.833Z,101030.13
2024-02-29T02:37:01.349Z,101026.78
2024-02-29T02:39:28.204Z,101017.25
2024-02-29T02:41:54.954Z,101019.03
2024-02-29T02:44:21.663Z,101019.69
2024-02-29T02:46:48.466Z,101013.06
2024-02-29T02:49:16.983Z,101005.16
2024-02-29T02:51:43.852Z,101008.47
2024-02-29T02:54:10.319Z,101007.69
2024-02-29T02:56:37.041Z,101007.81
2024-02-29T02:59:03.807Z,101002.31
2024-02-29T03:01:31.249Z,101004.00
2024-02-29T03:03:57.873Z,100996.25
2024-02-29T03:06:24.388Z,100996.06
2024-02-29T03:08:50.911Z,100984.34
2024-02-29T03:11:17.507Z,100984.78
2024-02-29T03:13:44.337Z,100985.31
2024-02-29T03:16:10.916Z,100990.78
2024-02-29T03:18:37.730Z,100985.47
2024-02-29T03:21:04.845Z,100984.53
2024-02-29T03:23:31.614Z,100971.28
2024-02-29T03:25:58.411Z,100968.56
2024-02-29T03:28:24.997Z,100966.56
2024-02-29T03:30:51.835Z,100960.50
2024-02-29T03:33:18.352Z,100962.13
2024-02-29T03:35:45.098Z,100957.91
2024-02-29T03:38:12.734Z,100955.34
2024-02-29T03:40:39.233Z,100959.66
2024-02-29T03:43:05.804Z,100945.13
2024-02-29T03:45:32.527Z,100950.75
2024-02-29T03:47:59.396Z,100943.81
2024-02-29T03:50:26.000Z,100936.34
2024-02-29T03:52:52.756Z,100937.31
2024-02-29T03:55:19.569Z,100926.59
2024-02-29T03:57:46.361Z,100926.31
2024-02-29T04:00:13.641Z,100922.03
2024-02-29T04:02:41.173Z,100921.28
2024-02-29T04:05:09.318Z,100912.75
2024-02-29T04:07:43.482Z,100920.22
2024-02-29T04:10:12.368Z,100909.31
2024-02-29T04:12:39.076Z,100899.28
2024-02-29T04:15:06.397Z,100907.75
2024-02-29T04:17:33.619Z,100903.25
2024-02-29T04:20:00.459Z,100897.09
2024-02-29T04:22:27.256Z,100896.25
2024-02-29T04:24:53.839Z,100897.09
2024-02-29T04:27:20.653Z,100886.69
2024-02-29T04:29:47.735Z,100890.09
2024-02-29T04:32:14.340Z,100885.03
2024-02-29T04:34:42.421Z,100889.19
2024-02-29T04:37:09.414Z,100887.50
2024-02-29T04:39:36.559Z,100904.19
2024-02-29T04:42:04.847Z,100894.78
2024-02-29T04:44:31.717Z,100894.91
2024-02-29T04:46:58.235Z,100891.06
2024-02-29T04:49:24.859Z,100883.00
2024-02-29T04:51:51.866Z,100887.78
2024-02-29T04:54:18.752Z,100886.94
2024-02-29T04:56:45.563Z,100882.69
2024-02-29T04:59:12.324Z,100891.88
2024-02-29T05:01:39.258Z,100890.38
2024-02-29T05:04:06.118Z,100889.41
2024-02-29T05:06:33.096Z,100884.91
2024-02-29T05:09:00.500Z,100895.88
2024-02-29T05:11:27.337Z,100892.13
2024-02-29T05:13:53.933Z,100887.88
2024-02-29T05:16:21.400Z,100885.44
2024-02-29T05:18:48.333Z,100882.75
2024-02-29T05:21:14.983Z,100889.41
2024-02-29T05:23:41.523Z,100886.88
2024-02-29T05:26:09.314Z,100882.00
2024-02-29T05:28:36.408Z,100875.28
2024-02-29T05:31:03.195Z,100878.75
2024-02-29T05:33:29.768Z,100866.28
2024-02-29T05:35:56.835Z,100874.03
2024-02-29T05:38:23.627Z,100876.22
2024-02-29T05:40:50.416Z,100864.94
2024-02-29T05:43:17.451Z,100865.38
2024-02-29T05:45:44.416Z,100853.53
2024-02-29T05:48:11.061Z,100855.72
2024-02-29T05:50:37.782Z,100851.94
2024-02-29T05:53:04.641Z,100850.94
2024-02-29T05:55:31.462Z,100846.31
2024-02-29T05:57:58.034Z,100843.19
2024-02-29T06:00:24.821Z,100840.75
2024-02-29T06:02:53.032Z,100845.66
2024-02-29T06:05:21.093Z,100844.34
2024-02-29T06:07:47.680Z,100842.19
2024-02-29T06:10:14.296Z,100847.06
2024-02-29T06:12:41.055Z,100845.41
2024-02-29T06:15:10.889Z,100846.63
2024-02-29T06:17:38.508Z,100848.41
2024-02-29T06:20:11.706Z,100844.44
2024-02-29T06:22:41.060Z,100839.72
2024-02-29T06:25:10.152Z,100840.00
2024-02-29T06:27:37.798Z,100840.34
2024-02-29T06:30:06.972Z,100837.00
2024-02-29T06:32:33.993Z,100831.59
2024-02-29T06:35:00.880Z,100831.69
2024-02-29T06:37:27.718Z,100835.56
2024-02-29T06:39:57.399Z,100835.38
2024-02-29T06:42:24.014Z,100829.00
2024-02-29T06:44:52.508Z,100827.50
2024-02-29T06:47:19.339Z,100827.97
2024-02-29T06:49:45.874Z,100831.97
2024-02-29T06:52:12.466Z,100826.47
2024-02-29T06:54:39.319Z,100826.88
2024-02-29T06:57:06.142Z,100823.34
2024-02-29T06:59:32.679Z,100825.03
2024-02-29T07:01:59.276Z,100814.59
2024-02-29T07:04:26.282Z,100814.69
2024-02-29T07:06:53.131Z,100811.59
2024-02-29T07:09:19.907Z,100811.69
2024-02-29T07:11:47.172Z,100812.69
2024-02-29T07:14:14.387Z,100812.75
2024-02-29T07:16:41.185Z,100807.78
2024-02-29T07:19:08.019Z,100811.22
2024-02-29T07:21:37.306Z,100801.78
2024-02-29T07:24:04.195Z,100801.06
2024-02-29T07:26:32.163Z,100796.88
2024-02-29T07:28:59.834Z,100798.63
2024-02-29T07:31:26.957Z,100799.59
2024-02-29T07:33:55.006Z,100809.16
2024-02-29T07:36:21.989Z,100805.88
2024-02-29T07:38:48.484Z,100806.78
2024-02-29T07:41:15.358Z,100804.31
2024-02-29T07:43:42.356Z,100807.91
2024-02-29T07:46:10.167Z,100803.69
2024-02-29T07:48:37.058Z,100802.06
2024-02-29T07:51:03.945Z,100804.78
2024-02-29T07:53:30.565Z,100803.16
2024-02-29T07:55:57.381Z,100802.38
2024-02-29T07:58:24.327Z,100810.13
2024-02-29T08:00:51.168Z,100802.56
2024-02-29T08:03:17.870Z,100798.34
2024-02-29T08:05:44.636Z,100798.41
2024-02-29T08:08:12.829Z,100795.88
2024-02-29T08:10:40.436Z,100792.59
2024-02-29T08:13:07.227Z,100794.41
2024-02-29T08:15:35.419Z,100783.28
2024-02-29T08:18:02.618Z,100793.69
2024-02-29T08:20:29.516Z,100791.13
2024-02-29T08:22:58.342Z,100786.81
2024-02-29T08:25:27.743Z,100777.34
2024-02-29T08:27:54.946Z,100778.22
2024-02-29T08:30:21.686Z,100774.72
2024-02-29T08:32:49.873Z,100771.28
2024-02-29T08:35:17.635Z,100766.94
2024-02-29T08:37:45.134Z,100766.00
2024-02-29T08:40:12.138Z,100762.47
2024-02-29T08:42:39.235Z,100759.00
2024-02-29T08:45:08.075Z,100755.50
2024-02-29T08:47:34.693Z,100758.84
2024-02-29T08:50:03.230Z,100753.56
2024-02-29T08:52:32.393Z,100761.31
2024-02-29T08:54:59.010Z,100759.56
2024-02-29T08:57:25.553Z,100754.22
2024-02-29T08:59:52.322Z,100759.34
2024-02-29T09:02:22.000Z,100757.47
2024-02-29T09:04:48.811Z,100757.31
2024-02-29T09:07:15.414Z,100758.19
2024-02-29T09:09:43.380Z,100748.47
2024-02-29T09:12:11.210Z,100742.31
2024-02-29T09:14:38.576Z,100746.63
2024-02-29T09:17:07.544Z,100738.84
2024-02-29T09:19:34.840Z,100723.03
2024-02-29T09:22:01.572Z,100729.88
2024-02-29T09:24:28.438Z,100729.78
2024-02-29T09:26:55.084Z,100730.63
2024-02-29T09:29:25.637Z,100725.34
2024-02-29T09:31:53.465Z,100713.84
2024-02-29T09:34:20.234Z,100725.97
2024-02-29T09:36:47.985Z,100719.91
2024-02-29T09:39:14.771Z,100717.19
2024-02-29T09:41:59.676Z,100714.38
2024-02-29T09:44:28.516Z,100714.19
2024-02-29T09:46:54.999Z,100711.56
2024-02-29T09:49:21.784Z,100709.00
2024-02-29T09:51:48.914Z,100709.03
2024-02-29T09:54:19.222Z,100707.63
2024-02-29T09:56:47.314Z,100705.53
2024-02-29T09:59:16.932Z,100706.41
2024-02-29T10:01:46.196Z,100704.97
2024-02-29T10:04:12.923Z,100699.63
2024-02-29T10:06:39.778Z,100696.88
2024-02-29T10:09:06.957Z,100690.44
2024-02-29T10:11:33.594Z,100689.34
2024-02-29T10:14:03.408Z,100693.41
2024-02-29T10:16:32.523Z,100693.13
2024-02-29T10:19:02.522Z,100693.41
2024-02-29T10:21:34.408Z,100686.41
2024-02-29T10:24:01.172Z,100684.66
2024-02-29T10:26:27.982Z,100687.84
2024-02-29T10:29:04.089Z,100688.31
2024-02-29T10:31:30.923Z,100670.59
2024-02-29T10:33:57.446Z,100672.41
2024-02-29T10:36:24.406Z,100671.44
2024-02-29T10:38:51.412Z,100662.69
2024-02-29T10:41:20.740Z,100667.97
2024-02-29T10:43:51.827Z,100665.19
2024-02-29T10:46:20.971Z,100653.00
2024-02-29T10:48:50.886Z,100653.50
2024-02-29T10:51:55.387Z,100652.66
2024-02-29T10:54:29.515Z,100653.53
2024-02-29T10:56:57.559Z,100656.88
2024-02-29T10:59:26.440Z,100659.34
2024-02-29T11:01:58.693Z,100651.06
2024-02-29T11:04:26.921Z,100646.06
2024-02-29T11:06:54.172Z,100653.03
2024-02-29T11:09:28.147Z,100643.78
2024-02-29T11:12:15.245Z,100639.13
2024-02-29T11:14:46.590Z,100637.22
2024-02-29T11:17:16.637Z,100631.72
2024-02-29T11:19:52.007Z,100624.31
2024-02-29T11:22:32.858Z,100619.13
2024-02-29T11:25:01.307Z,100615.34
2024-02-29T11:27:34.959Z,100615.19
2024-02-29T11:30:02.856Z,100604.50
2024-02-29T11:32:33.530Z,100596.91
2024-02-29T11:35:00.491Z,100601.47
2024-02-29T11:37:32.710Z,100598.16
2024-02-29T11:40:06.490Z,100596.06
2024-02-29T11:42:33.676Z,100591.47
2024-02-29T11:45:00.445Z,100590.00
2024-02-29T11:47:28.627Z,100583.13
2024-02-29T11:49:59.289Z,100572.91
2024-02-29T11:52:26.062Z,100573.88
2024-02-29T11:54:54.094Z,100577.47
2024-02-29T11:57:23.241Z,100572.44
2024-02-29T11:59:51.388Z,100573.88
2024-02-29T12:02:19.782Z,100563.03
2024-02-29T12:04:46.699Z,100556.88
2024-02-29T12:07:13.489Z,100555.47
2024-02-29T12:09:40.667Z,100556.75
2024-02-29T12:12:07.757Z,100539.66
2024-02-29T12:14:37.271Z,100546.44
2024-02-29T12:17:06.953Z,100539.81
2024-02-29T12:19:33.812Z,100534.88
2024-02-29T12:22:00.668Z,100532.81
2024-02-29T12:24:27.611Z,100526.63
2024-02-29T12:26:54.275Z,100523.97
2024-02-29T12:29:23.461Z,100524.25
2024-02-29T12:31:50.831Z,100516.38
2024-02-29T12:34:18.557Z,100514.44
2024-02-29T12:36:48.230Z,100502.84
2024-02-29T12:39:20.505Z,100499.31
2024-02-29T12:41:47.323Z,100493.00
2024-02-29T12:44:14.162Z,100500.41
2024-02-29T12:46:41.614Z,100495.09
2024-02-29T12:49:08.733Z,100488.41
2024-02-29T12:51:35.489Z,100489.53
2024-02-29T12:54:02.245Z,100481.84
2024-02-29T12:56:28.782Z,100472.66
2024-02-29T12:58:55.310Z,100461.25
2024-02-29T13:01:22.702Z,100458.13
2024-02-29T13:03:49.562Z,100460.25
2024-02-29T13:06:16.555Z,100454.28
2024-02-29T13:08:43.288Z,100447.22
2024-02-29T13:11:09.989Z,100440.88
2024-02-29T13:13:38.725Z,100428.44
2024-02-29T13:16:05.871Z,100434.44
2024-02-29T13:18:32.756Z,100426.50
2024-02-29T13:21:01.314Z,100422.09
2024-02-29T13:23:28.977Z,100420.72
2024-02-29T13:25:55.979Z,100407.84
2024-02-29T13:28:22.975Z,100412.16
2024-02-29T13:30:49.914Z,100398.13
2024-02-29T13:33:17.896Z,100397.25
2024-02-29T13:35:44.845Z,100399.06
2024-02-29T13:38:12.206Z,100397.72
2024-02-29T13:40:39.026Z,100386.22
2024-02-29T13:43:05.814Z,100379.66
2024-02-29T13:45:38.791Z,100372.09
2024-02-29T13:48:06.091Z,100373.59
2024-02-29T13:50:33.271Z,100365.44
2024-02-29T13:53:00.033Z,100357.72
2024-02-29T13:55:26.900Z,100360.97
2024-02-29T13:57:54.142Z,100359.72
2024-02-29T14:00:21.184Z,100362.75
2024-02-29T14:02:47.715Z,100355.19
2024-02-29T14:05:15.542Z,100351.47
2024-02-29T14:07:44.550Z,100355.44
2024-02-29T14:10:12.320Z,100351.63
2024-02-29T14:12:40.000Z,100343.06
2024-02-29T14:15:07.250Z,100341.78
2024-02-29T14:17:34.151Z,100337.66
2024-02-29T14:20:00.962Z,100331.16
2024-02-29T14:22:28.709Z,100329.47
2024-02-29T14:24:55.467Z,100328.16
2024-02-29T14:27:24.011Z,100317.25
2024-02-29T14:29:50.880Z,100314.69
2024-02-29T14:32:17.801Z,100320.25
2024-02-29T14:34:45.347Z,100303.19
2024-02-29T14:37:12.204Z,100299.44
2024-02-29T14:39:39.115Z,100296.31
2024-02-29T14:42:05.876Z,100297.56
2024-02-29T14:44:32.447Z,100290.91
2024-02-29T14:46:59.401Z,100302.56
2024-02-29T14:49:26.795Z,100289.06
2024-02-29T14:51:56.947Z,100287.97
2024-02-29T14:54:23.755Z,100284.75
2024-02-29T14:56:51.113Z,100281.44
2024-02-29T14:59:18.602Z,100264.91
2024-02-29T15:01:45.449Z,100265.06
2024-02-29T15:04:13.333Z,100266.13
2024-02-29T15:06:40.913Z,100262.09
2024-02-29T15:09:07.823Z,100258.09
2024-02-29T15:11:34.512Z,100264.13
2024-02-29T15:14:01.305Z,100255.69
2024-02-29T15:16:28.603Z,100261.91
2024-02-29T15:18:55.549Z,100268.03
2024-02-29T15:21:22.159Z,100250.78
2024-02-29T15:23:48.790Z,100258.78
2024-02-29T15:26:16.749Z,100254.47
2024-02-29T15:28:49.165Z,100244.19
2024-02-29T15:31:16.774Z,100247.84
2024-02-29T15:33:44.130Z,100247.16
2024-02-29T15:36:11.247Z,100243.84
2024-02-29T15:38:38.118Z,100232.47
2024-02-29T15:41:05.092Z,100237.91
2024-02-29T15:43:32.371Z,100234.53
2024-02-29T15:45:59.407Z,100238.25
2024-02-29T15:48:26.195Z,100237.59
2024-02-29T15:50:53.184Z,100224.75
2024-02-29T15:53:20.392Z,100218.53
2024-02-29T15:55:50.376Z,100216.94
2024-02-29T15:58:17.526Z,100223.31
2024-02-29T16:00:44.275Z,100213.75
2024-02-29T16:03:11.156Z,100217.41
2024-02-29T16:05:37.793Z,100217.91
2024-02-29T16:08:04.643Z,100216.69
2024-02-29T16:10:32.339Z,100214.09
2024-02-29T16:12:59.521Z,100207.59
2024-02-29T16:15:26.644Z,100207.22
2024-02-29T16:17:53.699Z,100202.50
2024-02-29T16:20:23.077Z,100201.94
2024-02-29T16:22:50.573Z,100194.50
2024-02-29T16:25:19.636Z,100195.69
2024-02-29T16:27:47.080Z,100188.88
2024-02-29T16:30:13.948Z,100191.75
2024-02-29T16:32:43.643Z,100189.41
2024-02-29T16:35:12.888Z,100182.63
2024-02-29T16:37:39.914Z,100186.22
2024-02-29T16:40:07.337Z,100184.81
2024-02-29T16:42:34.144Z,100183.22
2024-02-29T16:45:00.933Z,100185.34
2024-02-29T16:47:27.907Z,100181.19
2024-02-29T16:49:54.781Z,100181.50
2024-02-29T16:52:21.782Z,100187.69
2024-02-29T16:54:48.475Z,100181.03
2024-02-29T16:57:15.308Z,100179.75
2024-02-29T16:59:42.140Z,100179.97
2024-02-29T17:02:09.143Z,100171.47
2024-02-29T17:04:37.426Z,100170.00
2024-02-29T17:07:05.995Z,100164.28
2024-02-29T17:09:33.179Z,100167.66
2024-02-29T17:12:00.643Z,100160.88
2024-02-29T17:14:29.376Z,100162.81
2024-02-29T17:16:56.269Z,100169.91
2024-02-29T17:19:23.182Z,100167.53
2024-02-29T17:21:50.124Z,100175.50
2024-02-29T17:24:21.370Z,100172.34
2024-02-29T17:26:48.224Z,100170.66
2024-02-29T17:29:14.972Z,100167.31
2024-02-29T17:31:41.441Z,100166.50
2024-02-29T17:34:08.378Z,100166.56
2024-02-29T17:36:35.934Z,100160.66
2024-02-29T17:39:03.936Z,100161.66
2024-02-29T17:41:30.779Z,100153.06
2024-02-29T17:43:57.361Z,100161.84
2024-02-29T17:46:24.197Z,100150.56
2024-02-29T17:48:52.710Z,100147.09
2024-02-29T17:51:19.473Z,100148.00
2024-02-29T17:53:46.172Z,100150.84
2024-02-29T17:56:13.608Z,100149.16
2024-02-29T17:58:40.319Z,100150.22
2024-02-29T18:01:06.843Z,100142.41
2024-02-29T18:03:33.863Z,100143.22
2024-02-29T18:06:00.583Z,100145.13
2024-02-29T18:08:27.350Z,100137.34
2024-02-29T18:10:53.939Z,100136.59
2024-02-29T18:13:20.821Z,100136.56
2024-02-29T18:15:47.483Z,100131.56
2024-02-29T18:18:14.314Z,100128.91
2024-02-29T18:20:41.125Z,100131.56
2024-02-29T18:23:08.784Z,100127.34
2024-02-29T18:25:35.395Z,100127.38
2024-02-29T18:28:02.262Z,100123.00
2024-02-29T18:30:28.852Z,100124.88
2024-02-29T18:32:55.827Z,100115.41
2024-02-29T18:35:22.655Z,100117.25
2024-02-29T18:37:49.189Z,100114.66
2024-02-29T18:40:16.143Z,100119.97
2024-02-29T18:42:43.521Z,100120.03
2024-02-29T18:45:10.698Z,100111.47
2024-02-29T18:47:37.372Z,100120.94
2024-02-29T18:50:05.894Z,100116.78
2024-02-29T18:52:32.741Z,100116.03
2024-02-29T18:54:59.613Z,100119.63
2024-02-29T18:57:26.172Z,100116.25
2024-02-29T18:59:52.941Z,100103.38
2024-02-29T19:02:19.820Z,100106.84
2024-02-29T19:04:52.195Z,100105.19
2024-02-29T19:07:19.145Z,100105.16
2024-02-29T19:09:46.304Z,100107.78
2024-02-29T19:12:13.160Z,100105.28
2024-02-29T19:14:40.424Z,100105.34
2024-02-29T19:17:07.206Z,100101.13
2024-02-29T19:19:33.669Z,100101.22
2024-02-29T19:22:00.505Z,100096.03
2024-02-29T19:24:27.308Z,100094.28
2024-02-29T19:26:54.085Z,100093.44
2024-02-29T19:29:20.879Z,100096.88
2024-02-29T19:31:47.708Z,100098.59
2024-02-29T19:34:14.464Z,100090.91
2024-02-29T19:36:41.370Z,100090.84
2024-02-29T19:39:07.962Z,100093.53
2024-02-29T19:41:34.793Z,100087.47
2024-02-29T19:44:01.526Z,100082.44
2024-02-29T19:46:28.836Z,100080.66
2024-02-29T19:48:55.794Z,100081.56
2024-02-29T19:51:22.590Z,100077.22
2024-02-29T19:53:49.120Z,100076.31
2024-02-29T19:56:15.698Z,100071.28
2024-02-29T19:58:42.636Z,100069.59
2024-02-29T20:01:09.255Z,100069.56
2024-02-29T20:03:35.793Z,100067.94
2024-02-29T20:06:02.545Z,100069.59
2024-02-29T20:08:29.363Z,100069.59
2024-02-29T20:10:55.951Z,100062.81
2024-02-29T20:13:22.959Z,100061.97
2024-02-29T20:15:50.954Z,100066.31
2024-02-29T20:18:19.034Z,100067.25
2024-02-29T20:20:45.911Z,100065.50
2024-02-29T20:23:13.157Z,100063.81
2024-02-29T20:25:42.030Z,100063.84
2024-02-29T20:28:09.177Z,100066.41
2024-02-29T20:30:36.255Z,100066.59
2024-02-29T20:33:02.880Z,100061.41
2024-02-29T20:35:29.466Z,100061.31
2024-02-29T20:37:56.246Z,100054.44
2024-02-29T20:40:23.339Z,100057.97
2024-02-29T20:42:50.142Z,100061.41
2024-02-29T20:45:17.685Z,100058.00
2024-02-29T20:47:45.036Z,100050.25
2024-02-29T20:50:14.828Z,100040.00
2024-02-29T20:52:43.674Z,100038.28
2024-02-29T20:55:10.725Z,100029.72
2024-02-29T20:57:37.996Z,100035.66
2024-02-29T21:00:05.343Z,100029.69
2024-02-29T21:02:32.157Z,100025.28
2024-02-29T21:05:05.287Z,100021.00
2024-02-29T21:07:33.670Z,100024.28
2024-02-29T21:10:01.073Z,100026.00
2024-02-29T21:12:27.883Z,100032.28
2024-02-29T21:14:54.624Z,100023.81
2024-02-29T21:17:22.491Z,100023.00
2024-02-29T21:19:49.121Z,100001.56
2024-02-29T21:22:16.293Z,100005.06
2024-02-29T21:24:42.866Z,99998.22
2024-02-29T21:27:09.911Z,99999.16
2024-02-29T21:29:36.538Z,100000.97
2024-02-29T21:32:04.900Z,99996.66
2024-02-29T21:34:31.689Z,99988.84
2024-02-29T21:36:58.837Z,99991.94
2024-02-29T21:39:32.403Z,99999.56
2024-02-29T21:42:04.078Z,99991.34
2024-02-29T21:44:30.873Z,99987.91
2024-02-29T21:46:57.615Z,99987.13
2024-02-29T21:49:24.497Z,99984.28
2024-02-29T21:51:52.540Z,99982.50
2024-02-29T21:54:20.962Z,99977.38
2024-02-29T21:56:47.520Z,99967.09
2024-02-29T21:59:14.326Z,99960.97
2024-02-29T22:01:40.992Z,99968.63
2024-02-29T22:04:07.849Z,99968.06
2024-02-29T22:06:34.648Z,99964.56
2024-02-29T22:09:01.172Z,99963.03
2024-02-29T22:11:28.428Z,99955.44
2024-02-29T22:13:55.236Z,99955.47
2024-02-29T22:16:22.588Z,99947.69
2024-02-29T22:18:49.423Z,99953.81
2024-02-29T22:21:26.352Z,99952.78
2024-02-29T22:23:52.862Z,99938.41
2024-02-29T22:26:19.363Z,99938.50
2024-02-29T22:28:45.835Z,99931.75
2024-02-29T22:31:12.615Z,99936.78
2024-02-29T22:33:39.477Z,99946.31
2024-02-29T22:36:06.305Z,99929.97
2024-02-29T22:38:32.901Z,99939.34
2024-02-29T22:41:01.631Z,99937.81
2024-02-29T22:43:28.501Z,99920.44
2024-02-29T22:45:55.384Z,99924.00
2024-02-29T22:48:22.180Z,99920.66
2024-02-29T22:50:49.198Z,99921.56
2024-02-29T22:53:15.803Z,99912.16
2024-02-29T22:55:42.511Z,99922.47
2024-02-29T22:58:09.045Z,99908.47
2024-02-29T23:00:37.781Z,99904.78
2024-02-29T23:03:04.615Z,99905.97
2024-02-29T23:05:31.256Z,99910.97
2024-02-29T23:07:58.357Z,99915.22
2024-02-29T23:10:27.340Z,99909.47
2024-02-29T23:12:54.447Z,99894.47
2024-02-29T23:15:21.194Z,99899.22
2024-02-29T23:17:51.897Z,99895.41
2024-02-29T23:20:18.898Z,99897.72
2024-02-29T23:22:46.366Z,99885.84
2024-02-29T23:25:13.499Z,99902.56
2024-02-29T23:27:40.353Z,99902.69
2024-02-29T23:30:08.709Z,99900.22
2024-02-29T23:32:36.610Z,99892.50
2024-02-29T23:35:03.827Z,99890.00
2024-02-29T23:37:32.046Z,99886.66
2024-02-29T23:39:59.148Z,99883.03
2024-02-29T23:42:25.889Z,99886.25
2024-02-29T23:44:52.465Z,99876.69
2024-02-29T23:47:19.308Z,99880.41
2024-02-29T23:49:46.047Z,99871.66
2024-02-29T23:52:12.990Z,99870.59
2024-02-29T23:54:40.642Z,99871.66
2024-02-29T23:57:08.182Z,99864.25
2024-02-29T23:59:34.927Z,99866.41
